sensor_id;sensor_type;location;lat;lon;timestamp;P1;durP1;ratioP1;P2;durP2;ratioP2
43146;SDS011;28752;48.266;7.402;2023-06-26T00:01:06;7.15;;;3.85;;
43146;SDS011;28752;48.266;7.402;2023-06-26T00:03:31;7.38;;;3.80;;
43146;SDS011;28752;48.266;7.402;2023-06-26T00:05:57;7.28;;;4.07;;
43146;SDS011;28752;48.266;7.402;2023-06-26T00:08:25;10.10;;;4.25;;
43146;SDS011;28752;48.266;7.402;2023-06-26T00:10:51;8.98;;;5.00;;
43146;SDS011;28752;48.266;7.402;2023-06-26T00:13:17;8.10;;;4.55;;
43146;SDS011;28752;48.266;7.402;2023-06-26T00:15:42;7.73;;;3.90;;
43146;SDS011;28752;48.266;7.402;2023-06-26T00:18:08;9.10;;;4.57;;
43146;SDS011;28752;48.266;7.402;2023-06-26T00:20:33;9.52;;;4.60;;
43146;SDS011;28752;48.266;7.402;2023-06-26T00:22:59;7.78;;;4.68;;
43146;SDS011;28752;48.266;7.402;2023-06-26T00:25:25;7.88;;;4.70;;
43146;SDS011;28752;48.266;7.402;2023-06-26T00:27:50;6.70;;;3.87;;
43146;SDS011;28752;48.266;7.402;2023-06-26T00:30:15;7.70;;;4.60;;
43146;SDS011;28752;48.266;7.402;2023-06-26T00:32:41;8.90;;;4.65;;
43146;SDS011;28752;48.266;7.402;2023-06-26T00:35:06;7.50;;;4.53;;
43146;SDS011;28752;48.266;7.402;2023-06-26T00:37:31;8.23;;;4.57;;
43146;SDS011;28752;48.266;7.402;2023-06-26T00:39:57;9.52;;;4.93;;
43146;SDS011;28752;48.266;7.402;2023-06-26T00:42:22;8.07;;;4.50;;
43146;SDS011;28752;48.266;7.402;2023-06-26T00:44:48;8.50;;;4.13;;
43146;SDS011;28752;48.266;7.402;2023-06-26T00:47:14;7.53;;;4.33;;
43146;SDS011;28752;48.266;7.402;2023-06-26T00:49:40;6.38;;;3.90;;
43146;SDS011;28752;48.266;7.402;2023-06-26T00:52:06;7.45;;;4.20;;
43146;SDS011;28752;48.266;7.402;2023-06-26T00:54:32;7.13;;;3.97;;
43146;SDS011;28752;48.266;7.402;2023-06-26T00:56:57;7.30;;;4.10;;
43146;SDS011;28752;48.266;7.402;2023-06-26T00:59:23;6.70;;;4.13;;
43146;SDS011;28752;48.266;7.402;2023-06-26T01:01:48;6.43;;;3.93;;
43146;SDS011;28752;48.266;7.402;2023-06-26T01:04:14;6.87;;;4.07;;
43146;SDS011;28752;48.266;7.402;2023-06-26T01:06:43;7.68;;;3.78;;
43146;SDS011;28752;48.266;7.402;2023-06-26T01:09:14;5.93;;;3.50;;
43146;SDS011;28752;48.266;7.402;2023-06-26T01:11:42;7.18;;;3.95;;
43146;SDS011;28752;48.266;7.402;2023-06-26T01:14:07;8.80;;;4.30;;
43146;SDS011;28752;48.266;7.402;2023-06-26T01:16:33;8.07;;;4.77;;
43146;SDS011;28752;48.266;7.402;2023-06-26T01:19:00;7.78;;;4.57;;
43146;SDS011;28752;48.266;7.402;2023-06-26T01:21:25;6.75;;;3.92;;
43146;SDS011;28752;48.266;7.402;2023-06-26T01:24:12;7.60;;;4.22;;
43146;SDS011;28752;48.266;7.402;2023-06-26T01:26:52;7.03;;;4.05;;
43146;SDS011;28752;48.266;7.402;2023-06-26T01:29:18;7.20;;;4.28;;
43146;SDS011;28752;48.266;7.402;2023-06-26T01:31:46;8.40;;;4.45;;
43146;SDS011;28752;48.266;7.402;2023-06-26T01:34:17;7.15;;;3.95;;
43146;SDS011;28752;48.266;7.402;2023-06-26T01:36:46;7.07;;;3.90;;
43146;SDS011;28752;48.266;7.402;2023-06-26T01:39:15;7.78;;;4.03;;
43146;SDS011;28752;48.266;7.402;2023-06-26T01:41:41;7.00;;;3.80;;
43146;SDS011;28752;48.266;7.402;2023-06-26T01:49:25;7.10;;;3.85;;
43146;SDS011;28752;48.266;7.402;2023-06-26T01:51:55;7.00;;;4.07;;
43146;SDS011;28752;48.266;7.402;2023-06-26T01:54:28;7.15;;;3.80;;
43146;SDS011;28752;48.266;7.402;2023-06-26T01:56:58;7.20;;;4.03;;
43146;SDS011;28752;48.266;7.402;2023-06-26T01:59:24;8.00;;;3.67;;
43146;SDS011;28752;48.266;7.402;2023-06-26T02:01:53;6.72;;;3.78;;
43146;SDS011;28752;48.266;7.402;2023-06-26T02:04:19;5.88;;;3.53;;
43146;SDS011;28752;48.266;7.402;2023-06-26T02:06:44;7.37;;;3.77;;
43146;SDS011;28752;48.266;7.402;2023-06-26T02:09:09;7.03;;;4.07;;
43146;SDS011;28752;48.266;7.402;2023-06-26T02:11:35;6.28;;;3.90;;
43146;SDS011;28752;48.266;7.402;2023-06-26T02:14:00;6.60;;;3.70;;
43146;SDS011;28752;48.266;7.402;2023-06-26T02:16:26;7.07;;;3.93;;
43146;SDS011;28752;48.266;7.402;2023-06-26T02:18:51;6.43;;;3.80;;
43146;SDS011;28752;48.266;7.402;2023-06-26T02:21:16;8.00;;;4.37;;
43146;SDS011;28752;48.266;7.402;2023-06-26T02:23:42;6.10;;;3.87;;
43146;SDS011;28752;48.266;7.402;2023-06-26T02:26:07;8.33;;;4.10;;
43146;SDS011;28752;48.266;7.402;2023-06-26T02:28:32;6.30;;;3.80;;
43146;SDS011;28752;48.266;7.402;2023-06-26T02:30:59;8.00;;;4.30;;
43146;SDS011;28752;48.266;7.402;2023-06-26T02:33:24;7.20;;;4.07;;
43146;SDS011;28752;48.266;7.402;2023-06-26T02:35:50;6.85;;;3.85;;
43146;SDS011;28752;48.266;7.402;2023-06-26T02:38:16;7.18;;;3.78;;
43146;SDS011;28752;48.266;7.402;2023-06-26T02:43:07;8.40;;;4.70;;
43146;SDS011;28752;48.266;7.402;2023-06-26T02:45:32;7.37;;;4.17;;
43146;SDS011;28752;48.266;7.402;2023-06-26T02:47:58;6.47;;;4.03;;
43146;SDS011;28752;48.266;7.402;2023-06-26T02:50:23;9.93;;;4.63;;
43146;SDS011;28752;48.266;7.402;2023-06-26T02:52:48;8.00;;;3.87;;
43146;SDS011;28752;48.266;7.402;2023-06-26T02:55:17;7.00;;;4.00;;
43146;SDS011;28752;48.266;7.402;2023-06-26T02:57:43;7.28;;;4.18;;
43146;SDS011;28752;48.266;7.402;2023-06-26T03:00:08;7.23;;;4.30;;
43146;SDS011;28752;48.266;7.402;2023-06-26T03:02:36;6.20;;;3.67;;
43146;SDS011;28752;48.266;7.402;2023-06-26T03:05:01;7.63;;;4.10;;
43146;SDS011;28752;48.266;7.402;2023-06-26T03:09:53;8.73;;;4.82;;
43146;SDS011;28752;48.266;7.402;2023-06-26T03:12:18;7.63;;;3.70;;
43146;SDS011;28752;48.266;7.402;2023-06-26T03:14:43;7.25;;;4.40;;
43146;SDS011;28752;48.266;7.402;2023-06-26T03:17:09;7.80;;;4.20;;
43146;SDS011;28752;48.266;7.402;2023-06-26T03:19:34;7.27;;;3.80;;
43146;SDS011;28752;48.266;7.402;2023-06-26T03:22:00;6.20;;;3.83;;
43146;SDS011;28752;48.266;7.402;2023-06-26T03:24:25;7.57;;;4.33;;
43146;SDS011;28752;48.266;7.402;2023-06-26T03:26:50;7.57;;;4.20;;
43146;SDS011;28752;48.266;7.402;2023-06-26T03:29:16;7.47;;;4.13;;
43146;SDS011;28752;48.266;7.402;2023-06-26T03:31:42;7.50;;;4.28;;
43146;SDS011;28752;48.266;7.402;2023-06-26T03:34:07;7.30;;;4.43;;
43146;SDS011;28752;48.266;7.402;2023-06-26T03:36:32;11.13;;;4.33;;
43146;SDS011;28752;48.266;7.402;2023-06-26T03:38:58;7.07;;;3.80;;
43146;SDS011;28752;48.266;7.402;2023-06-26T03:41:23;7.20;;;3.90;;
43146;SDS011;28752;48.266;7.402;2023-06-26T03:43:49;7.38;;;4.35;;
43146;SDS011;28752;48.266;7.402;2023-06-26T03:46:14;7.63;;;4.53;;
43146;SDS011;28752;48.266;7.402;2023-06-26T03:48:40;7.03;;;3.87;;
43146;SDS011;28752;48.266;7.402;2023-06-26T03:51:06;7.25;;;4.53;;
43146;SDS011;28752;48.266;7.402;2023-06-26T03:53:32;8.13;;;4.18;;
43146;SDS011;28752;48.266;7.402;2023-06-26T03:55:57;6.88;;;4.10;;
43146;SDS011;28752;48.266;7.402;2023-06-26T03:58:23;6.33;;;3.87;;
43146;SDS011;28752;48.266;7.402;2023-06-26T04:00:50;7.75;;;4.35;;
43146;SDS011;28752;48.266;7.402;2023-06-26T04:03:15;7.70;;;4.22;;
43146;SDS011;28752;48.266;7.402;2023-06-26T04:05:41;9.70;;;4.57;;
43146;SDS011;28752;48.266;7.402;2023-06-26T04:08:06;6.83;;;3.70;;
43146;SDS011;28752;48.266;7.402;2023-06-26T04:10:31;6.95;;;4.25;;
43146;SDS011;28752;48.266;7.402;2023-06-26T04:12:57;7.50;;;4.43;;
43146;SDS011;28752;48.266;7.402;2023-06-26T04:15:22;7.80;;;4.10;;
43146;SDS011;28752;48.266;7.402;2023-06-26T04:17:47;7.60;;;4.13;;
43146;SDS011;28752;48.266;7.402;2023-06-26T04:20:13;6.97;;;4.33;;
43146;SDS011;28752;48.266;7.402;2023-06-26T04:22:38;7.45;;;4.25;;
43146;SDS011;28752;48.266;7.402;2023-06-26T04:25:04;6.87;;;3.93;;
43146;SDS011;28752;48.266;7.402;2023-06-26T04:27:30;6.40;;;3.88;;
43146;SDS011;28752;48.266;7.402;2023-06-26T04:29:55;9.55;;;4.07;;
43146;SDS011;28752;48.266;7.402;2023-06-26T04:32:20;7.53;;;3.88;;
43146;SDS011;28752;48.266;7.402;2023-06-26T04:34:46;6.68;;;3.90;;
43146;SDS011;28752;48.266;7.402;2023-06-26T04:37:13;6.25;;;3.30;;
43146;SDS011;28752;48.266;7.402;2023-06-26T04:39:41;6.70;;;3.75;;
43146;SDS011;28752;48.266;7.402;2023-06-26T04:42:06;5.97;;;3.63;;
43146;SDS011;28752;48.266;7.402;2023-06-26T04:44:32;6.88;;;3.85;;
43146;SDS011;28752;48.266;7.402;2023-06-26T04:46:58;5.43;;;3.50;;
43146;SDS011;28752;48.266;7.402;2023-06-26T04:49:23;6.72;;;3.83;;
43146;SDS011;28752;48.266;7.402;2023-06-26T04:51:49;7.35;;;3.97;;
43146;SDS011;28752;48.266;7.402;2023-06-26T04:54:18;5.95;;;3.72;;
43146;SDS011;28752;48.266;7.402;2023-06-26T04:56:43;7.80;;;4.28;;
43146;SDS011;28752;48.266;7.402;2023-06-26T04:59:12;5.63;;;3.47;;
43146;SDS011;28752;48.266;7.402;2023-06-26T05:01:39;6.35;;;4.00;;
43146;SDS011;28752;48.266;7.402;2023-06-26T05:04:05;7.40;;;4.53;;
43146;SDS011;28752;48.266;7.402;2023-06-26T05:08:56;6.18;;;3.70;;
43146;SDS011;28752;48.266;7.402;2023-06-26T05:11:22;7.65;;;4.10;;
43146;SDS011;28752;48.266;7.402;2023-06-26T05:13:48;7.97;;;3.92;;
43146;SDS011;28752;48.266;7.402;2023-06-26T05:18:39;6.97;;;4.32;;
43146;SDS011;28752;48.266;7.402;2023-06-26T05:21:04;10.13;;;4.90;;
43146;SDS011;28752;48.266;7.402;2023-06-26T05:23:31;7.50;;;4.72;;
43146;SDS011;28752;48.266;7.402;2023-06-26T05:25:57;8.35;;;4.95;;
43146;SDS011;28752;48.266;7.402;2023-06-26T05:28:23;9.90;;;5.45;;
43146;SDS011;28752;48.266;7.402;2023-06-26T05:30:50;8.52;;;5.30;;
43146;SDS011;28752;48.266;7.402;2023-06-26T05:33:17;10.57;;;5.68;;
43146;SDS011;28752;48.266;7.402;2023-06-26T05:35:43;9.82;;;6.30;;
43146;SDS011;28752;48.266;7.402;2023-06-26T05:38:10;10.82;;;5.75;;
43146;SDS011;28752;48.266;7.402;2023-06-26T05:40:38;12.52;;;6.50;;
43146;SDS011;28752;48.266;7.402;2023-06-26T05:43:05;10.30;;;6.57;;
43146;SDS011;28752;48.266;7.402;2023-06-26T05:45:31;12.50;;;6.68;;
43146;SDS011;28752;48.266;7.402;2023-06-26T05:47:56;8.77;;;5.75;;
43146;SDS011;28752;48.266;7.402;2023-06-26T05:50:21;9.05;;;5.63;;
43146;SDS011;28752;48.266;7.402;2023-06-26T05:52:47;10.05;;;5.60;;
43146;SDS011;28752;48.266;7.402;2023-06-26T05:57:38;8.98;;;5.18;;
43146;SDS011;28752;48.266;7.402;2023-06-26T06:00:05;10.00;;;5.03;;
43146;SDS011;28752;48.266;7.402;2023-06-26T06:02:36;10.55;;;5.30;;
43146;SDS011;28752;48.266;7.402;2023-06-26T06:05:02;8.88;;;5.25;;
43146;SDS011;28752;48.266;7.402;2023-06-26T06:07:28;8.05;;;4.82;;
43146;SDS011;28752;48.266;7.402;2023-06-26T06:09:53;8.02;;;5.15;;
43146;SDS011;28752;48.266;7.402;2023-06-26T06:12:18;7.93;;;4.68;;
43146;SDS011;28752;48.266;7.402;2023-06-26T06:14:44;6.28;;;3.97;;
43146;SDS011;28752;48.266;7.402;2023-06-26T06:17:09;7.20;;;4.35;;
43146;SDS011;28752;48.266;7.402;2023-06-26T06:19:35;10.82;;;4.80;;
43146;SDS011;28752;48.266;7.402;2023-06-26T06:22:00;6.65;;;4.28;;
43146;SDS011;28752;48.266;7.402;2023-06-26T06:24:26;6.68;;;4.03;;
43146;SDS011;28752;48.266;7.402;2023-06-26T06:26:51;8.75;;;4.63;;
43146;SDS011;28752;48.266;7.402;2023-06-26T06:29:17;7.63;;;4.07;;
43146;SDS011;28752;48.266;7.402;2023-06-26T06:31:44;7.80;;;4.68;;
43146;SDS011;28752;48.266;7.402;2023-06-26T06:34:09;8.07;;;5.10;;
43146;SDS011;28752;48.266;7.402;2023-06-26T06:36:34;6.40;;;4.05;;
43146;SDS011;28752;48.266;7.402;2023-06-26T06:39:00;6.75;;;4.25;;
43146;SDS011;28752;48.266;7.402;2023-06-26T06:41:25;7.82;;;4.70;;
43146;SDS011;28752;48.266;7.402;2023-06-26T06:43:50;7.25;;;4.80;;
43146;SDS011;28752;48.266;7.402;2023-06-26T06:46:16;7.38;;;3.55;;
43146;SDS011;28752;48.266;7.402;2023-06-26T06:48:41;6.85;;;4.32;;
43146;SDS011;28752;48.266;7.402;2023-06-26T06:51:07;6.50;;;4.25;;
43146;SDS011;28752;48.266;7.402;2023-06-26T06:53:32;6.85;;;3.97;;
43146;SDS011;28752;48.266;7.402;2023-06-26T06:55:57;5.75;;;3.40;;
43146;SDS011;28752;48.266;7.402;2023-06-26T06:58:23;6.00;;;3.70;;
43146;SDS011;28752;48.266;7.402;2023-06-26T07:00:48;6.18;;;4.05;;
43146;SDS011;28752;48.266;7.402;2023-06-26T07:03:16;6.05;;;3.88;;
43146;SDS011;28752;48.266;7.402;2023-06-26T07:05:41;6.28;;;4.25;;
43146;SDS011;28752;48.266;7.402;2023-06-26T07:08:07;5.38;;;3.47;;
43146;SDS011;28752;48.266;7.402;2023-06-26T07:10:33;5.05;;;3.20;;
43146;SDS011;28752;48.266;7.402;2023-06-26T07:12:58;5.45;;;3.50;;
43146;SDS011;28752;48.266;7.402;2023-06-26T07:15:24;5.75;;;3.35;;
43146;SDS011;28752;48.266;7.402;2023-06-26T07:17:49;5.97;;;3.60;;
43146;SDS011;28752;48.266;7.402;2023-06-26T07:20:14;5.25;;;3.60;;
43146;SDS011;28752;48.266;7.402;2023-06-26T07:22:43;6.57;;;3.58;;
43146;SDS011;28752;48.266;7.402;2023-06-26T07:25:10;7.35;;;3.85;;
43146;SDS011;28752;48.266;7.402;2023-06-26T07:27:39;5.18;;;3.47;;
43146;SDS011;28752;48.266;7.402;2023-06-26T07:30:05;5.68;;;3.50;;
43146;SDS011;28752;48.266;7.402;2023-06-26T07:32:34;6.95;;;3.40;;
43146;SDS011;28752;48.266;7.402;2023-06-26T07:34:59;5.07;;;3.40;;
43146;SDS011;28752;48.266;7.402;2023-06-26T07:37:25;6.55;;;3.63;;
43146;SDS011;28752;48.266;7.402;2023-06-26T07:39:50;5.68;;;3.85;;
43146;SDS011;28752;48.266;7.402;2023-06-26T07:42:16;5.15;;;3.15;;
43146;SDS011;28752;48.266;7.402;2023-06-26T07:44:41;6.30;;;3.67;;
43146;SDS011;28752;48.266;7.402;2023-06-26T07:47:07;5.60;;;3.30;;
43146;SDS011;28752;48.266;7.402;2023-06-26T07:49:32;6.93;;;3.42;;
43146;SDS011;28752;48.266;7.402;2023-06-26T07:51:58;5.45;;;3.25;;
43146;SDS011;28752;48.266;7.402;2023-06-26T07:54:23;5.40;;;3.20;;
43146;SDS011;28752;48.266;7.402;2023-06-26T07:56:55;6.80;;;3.47;;
43146;SDS011;28752;48.266;7.402;2023-06-26T07:59:25;5.82;;;3.47;;
43146;SDS011;28752;48.266;7.402;2023-06-26T08:01:51;5.78;;;3.80;;
43146;SDS011;28752;48.266;7.402;2023-06-26T08:04:18;6.15;;;3.35;;
43146;SDS011;28752;48.266;7.402;2023-06-26T08:06:45;5.82;;;3.72;;
43146;SDS011;28752;48.266;7.402;2023-06-26T08:09:15;6.00;;;3.95;;
43146;SDS011;28752;48.266;7.402;2023-06-26T08:11:42;4.90;;;3.30;;
43146;SDS011;28752;48.266;7.402;2023-06-26T08:14:07;5.60;;;3.60;;
43146;SDS011;28752;48.266;7.402;2023-06-26T08:16:33;5.50;;;3.60;;
43146;SDS011;28752;48.266;7.402;2023-06-26T08:18:58;4.75;;;2.95;;
43146;SDS011;28752;48.266;7.402;2023-06-26T08:21:24;5.85;;;3.35;;
43146;SDS011;28752;48.266;7.402;2023-06-26T08:23:49;5.55;;;3.65;;
43146;SDS011;28752;48.266;7.402;2023-06-26T08:26:14;6.10;;;3.47;;
43146;SDS011;28752;48.266;7.402;2023-06-26T08:28:40;5.95;;;3.83;;
43146;SDS011;28752;48.266;7.402;2023-06-26T08:31:05;6.35;;;3.42;;
43146;SDS011;28752;48.266;7.402;2023-06-26T08:33:30;5.78;;;3.15;;
43146;SDS011;28752;48.266;7.402;2023-06-26T08:35:56;6.35;;;4.00;;
43146;SDS011;28752;48.266;7.402;2023-06-26T08:38:21;6.40;;;3.90;;
43146;SDS011;28752;48.266;7.402;2023-06-26T08:40:46;6.30;;;3.95;;
43146;SDS011;28752;48.266;7.402;2023-06-26T08:43:12;5.97;;;3.80;;
43146;SDS011;28752;48.266;7.402;2023-06-26T08:45:38;6.43;;;3.70;;
43146;SDS011;28752;48.266;7.402;2023-06-26T08:48:03;5.85;;;3.42;;
43146;SDS011;28752;48.266;7.402;2023-06-26T08:50:33;6.90;;;3.50;;
43146;SDS011;28752;48.266;7.402;2023-06-26T08:56:04;5.72;;;3.80;;
43146;SDS011;28752;48.266;7.402;2023-06-26T08:58:32;5.05;;;3.13;;
43146;SDS011;28752;48.266;7.402;2023-06-26T09:00:57;6.20;;;4.07;;
43146;SDS011;28752;48.266;7.402;2023-06-26T09:03:23;5.60;;;3.60;;
43146;SDS011;28752;48.266;7.402;2023-06-26T09:05:50;6.15;;;3.85;;
43146;SDS011;28752;48.266;7.402;2023-06-26T09:08:16;5.90;;;3.40;;
43146;SDS011;28752;48.266;7.402;2023-06-26T09:10:41;5.38;;;3.50;;
43146;SDS011;28752;48.266;7.402;2023-06-26T09:13:07;7.43;;;3.72;;
43146;SDS011;28752;48.266;7.402;2023-06-26T09:15:39;6.22;;;3.65;;
43146;SDS011;28752;48.266;7.402;2023-06-26T09:18:07;5.03;;;3.08;;
43146;SDS011;28752;48.266;7.402;2023-06-26T09:20:33;6.30;;;3.65;;
43146;SDS011;28752;48.266;7.402;2023-06-26T09:22:58;6.32;;;3.20;;
43146;SDS011;28752;48.266;7.402;2023-06-26T09:25:25;5.28;;;3.03;;
43146;SDS011;28752;48.266;7.402;2023-06-26T09:27:51;5.15;;;3.28;;
43146;SDS011;28752;48.266;7.402;2023-06-26T09:30:17;6.97;;;3.70;;
43146;SDS011;28752;48.266;7.402;2023-06-26T09:32:43;7.93;;;3.40;;
43146;SDS011;28752;48.266;7.402;2023-06-26T09:35:09;7.40;;;3.60;;
43146;SDS011;28752;48.266;7.402;2023-06-26T09:37:35;5.65;;;3.25;;
43146;SDS011;28752;48.266;7.402;2023-06-26T09:40:01;5.20;;;2.95;;
43146;SDS011;28752;48.266;7.402;2023-06-26T09:42:26;5.82;;;3.20;;
43146;SDS011;28752;48.266;7.402;2023-06-26T09:44:52;7.18;;;3.13;;
43146;SDS011;28752;48.266;7.402;2023-06-26T09:47:20;5.35;;;2.90;;
43146;SDS011;28752;48.266;7.402;2023-06-26T09:49:46;5.30;;;3.20;;
43146;SDS011;28752;48.266;7.402;2023-06-26T09:52:15;6.22;;;3.22;;
43146;SDS011;28752;48.266;7.402;2023-06-26T09:54:42;6.20;;;3.28;;
43146;SDS011;28752;48.266;7.402;2023-06-26T09:57:11;5.07;;;3.00;;
43146;SDS011;28752;48.266;7.402;2023-06-26T09:59:38;6.57;;;3.20;;
43146;SDS011;28752;48.266;7.402;2023-06-26T10:02:05;5.22;;;2.95;;
43146;SDS011;28752;48.266;7.402;2023-06-26T10:04:30;6.18;;;3.33;;
43146;SDS011;28752;48.266;7.402;2023-06-26T10:06:56;6.47;;;2.80;;
43146;SDS011;28752;48.266;7.402;2023-06-26T10:09:23;5.03;;;3.15;;
43146;SDS011;28752;48.266;7.402;2023-06-26T10:11:54;5.82;;;3.13;;
43146;SDS011;28752;48.266;7.402;2023-06-26T10:14:27;5.13;;;2.65;;
43146;SDS011;28752;48.266;7.402;2023-06-26T10:16:57;6.10;;;2.85;;
43146;SDS011;28752;48.266;7.402;2023-06-26T10:19:25;4.97;;;2.45;;
43146;SDS011;28752;48.266;7.402;2023-06-26T10:21:52;4.82;;;2.70;;
43146;SDS011;28752;48.266;7.402;2023-06-26T10:24:19;5.05;;;2.75;;
43146;SDS011;28752;48.266;7.402;2023-06-26T10:26:48;5.68;;;2.92;;
43146;SDS011;28752;48.266;7.402;2023-06-26T10:29:17;6.07;;;3.08;;
43146;SDS011;28752;48.266;7.402;2023-06-26T10:31:45;6.25;;;2.95;;
43146;SDS011;28752;48.266;7.402;2023-06-26T10:34:15;5.45;;;2.70;;
43146;SDS011;28752;48.266;7.402;2023-06-26T10:36:41;4.35;;;2.70;;
43146;SDS011;28752;48.266;7.402;2023-06-26T10:39:06;5.05;;;2.80;;
43146;SDS011;28752;48.266;7.402;2023-06-26T10:41:41;5.22;;;2.70;;
43146;SDS011;28752;48.266;7.402;2023-06-26T10:44:10;5.80;;;2.85;;
43146;SDS011;28752;48.266;7.402;2023-06-26T10:46:53;5.20;;;2.63;;
43146;SDS011;28752;48.266;7.402;2023-06-26T10:49:27;5.80;;;3.05;;
43146;SDS011;28752;48.266;7.402;2023-06-26T10:51:54;7.25;;;2.50;;
43146;SDS011;28752;48.266;7.402;2023-06-26T10:54:25;4.85;;;2.53;;
43146;SDS011;28752;48.266;7.402;2023-06-26T10:56:55;4.38;;;2.33;;
43146;SDS011;28752;48.266;7.402;2023-06-26T10:59:24;4.88;;;2.53;;
43146;SDS011;28752;48.266;7.402;2023-06-26T11:02:00;6.18;;;2.60;;
43146;SDS011;28752;48.266;7.402;2023-06-26T11:04:50;6.15;;;2.97;;
43146;SDS011;28752;48.266;7.402;2023-06-26T11:07:24;4.57;;;2.10;;
43146;SDS011;28752;48.266;7.402;2023-06-26T11:09:54;5.25;;;2.63;;
43146;SDS011;28752;48.266;7.402;2023-06-26T11:15:16;5.05;;;2.70;;
43146;SDS011;28752;48.266;7.402;2023-06-26T11:17:43;6.18;;;2.63;;
43146;SDS011;28752;48.266;7.402;2023-06-26T11:20:13;4.78;;;2.33;;
43146;SDS011;28752;48.266;7.402;2023-06-26T11:22:41;4.95;;;2.30;;
43146;SDS011;28752;48.266;7.402;2023-06-26T11:25:08;5.05;;;2.63;;
43146;SDS011;28752;48.266;7.402;2023-06-26T11:30:03;4.65;;;2.10;;
43146;SDS011;28752;48.266;7.402;2023-06-26T11:32:30;4.63;;;2.10;;
43146;SDS011;28752;48.266;7.402;2023-06-26T11:34:57;4.10;;;1.92;;
43146;SDS011;28752;48.266;7.402;2023-06-26T11:37:23;4.40;;;1.98;;
43146;SDS011;28752;48.266;7.402;2023-06-26T11:39:50;3.78;;;2.05;;
43146;SDS011;28752;48.266;7.402;2023-06-26T11:42:16;4.13;;;1.77;;
43146;SDS011;28752;48.266;7.402;2023-06-26T11:44:42;4.90;;;2.10;;
43146;SDS011;28752;48.266;7.402;2023-06-26T11:47:11;5.38;;;1.90;;
43146;SDS011;28752;48.266;7.402;2023-06-26T11:49:47;4.35;;;1.90;;
43146;SDS011;28752;48.266;7.402;2023-06-26T11:52:14;3.78;;;1.67;;
43146;SDS011;28752;48.266;7.402;2023-06-26T11:54:40;4.47;;;2.22;;
43146;SDS011;28752;48.266;7.402;2023-06-26T11:57:06;3.63;;;1.83;;
43146;SDS011;28752;48.266;7.402;2023-06-26T11:59:38;3.75;;;1.80;;
43146;SDS011;28752;48.266;7.402;2023-06-26T12:02:05;3.10;;;1.50;;
43146;SDS011;28752;48.266;7.402;2023-06-26T12:04:35;4.05;;;1.92;;
43146;SDS011;28752;48.266;7.402;2023-06-26T12:07:02;4.10;;;1.92;;
43146;SDS011;28752;48.266;7.402;2023-06-26T12:09:30;3.72;;;1.50;;
43146;SDS011;28752;48.266;7.402;2023-06-26T12:11:58;3.05;;;1.45;;
43146;SDS011;28752;48.266;7.402;2023-06-26T12:14:24;4.15;;;1.85;;
43146;SDS011;28752;48.266;7.402;2023-06-26T12:16:53;3.03;;;1.50;;
43146;SDS011;28752;48.266;7.402;2023-06-26T12:19:23;3.30;;;1.40;;
43146;SDS011;28752;48.266;7.402;2023-06-26T12:21:49;3.42;;;1.70;;
43146;SDS011;28752;48.266;7.402;2023-06-26T12:24:21;2.90;;;1.40;;
43146;SDS011;28752;48.266;7.402;2023-06-26T12:26:54;4.25;;;1.70;;
43146;SDS011;28752;48.266;7.402;2023-06-26T12:29:24;4.28;;;1.80;;
43146;SDS011;28752;48.266;7.402;2023-06-26T12:31:56;3.53;;;1.67;;
43146;SDS011;28752;48.266;7.402;2023-06-26T12:34:28;3.88;;;2.25;;
43146;SDS011;28752;48.266;7.402;2023-06-26T12:37:04;4.00;;;1.52;;
43146;SDS011;28752;48.266;7.402;2023-06-26T12:39:38;4.50;;;1.85;;
43146;SDS011;28752;48.266;7.402;2023-06-26T12:42:18;3.88;;;1.60;;
43146;SDS011;28752;48.266;7.402;2023-06-26T12:44:45;3.60;;;2.00;;
43146;SDS011;28752;48.266;7.402;2023-06-26T12:47:10;4.15;;;1.90;;
43146;SDS011;28752;48.266;7.402;2023-06-26T12:49:42;3.33;;;1.63;;
43146;SDS011;28752;48.266;7.402;2023-06-26T12:52:10;4.07;;;1.90;;
43146;SDS011;28752;48.266;7.402;2023-06-26T12:54:40;5.65;;;2.28;;
43146;SDS011;28752;48.266;7.402;2023-06-26T12:57:07;3.72;;;1.92;;
43146;SDS011;28752;48.266;7.402;2023-06-26T12:59:33;4.90;;;2.13;;
43146;SDS011;28752;48.266;7.402;2023-06-26T13:02:01;5.20;;;2.17;;
43146;SDS011;28752;48.266;7.402;2023-06-26T13:04:26;4.63;;;2.25;;
43146;SDS011;28752;48.266;7.402;2023-06-26T13:06:52;4.32;;;2.10;;
43146;SDS011;28752;48.266;7.402;2023-06-26T13:09:20;5.10;;;2.42;;
43146;SDS011;28752;48.266;7.402;2023-06-26T13:11:45;4.75;;;2.33;;
43146;SDS011;28752;48.266;7.402;2023-06-26T13:14:11;5.13;;;2.40;;
43146;SDS011;28752;48.266;7.402;2023-06-26T13:16:36;5.25;;;2.45;;
43146;SDS011;28752;48.266;7.402;2023-06-26T13:19:02;5.00;;;2.35;;
43146;SDS011;28752;48.266;7.402;2023-06-26T13:21:27;5.18;;;2.25;;
43146;SDS011;28752;48.266;7.402;2023-06-26T13:23:53;6.80;;;3.15;;
43146;SDS011;28752;48.266;7.402;2023-06-26T13:26:20;5.05;;;2.55;;
43146;SDS011;28752;48.266;7.402;2023-06-26T13:28:46;7.38;;;2.55;;
43146;SDS011;28752;48.266;7.402;2023-06-26T13:31:12;4.47;;;1.92;;
43146;SDS011;28752;48.266;7.402;2023-06-26T13:33:37;5.20;;;2.70;;
43146;SDS011;28752;48.266;7.402;2023-06-26T13:36:03;4.88;;;2.53;;
43146;SDS011;28752;48.266;7.402;2023-06-26T13:38:30;5.30;;;2.60;;
43146;SDS011;28752;48.266;7.402;2023-06-26T13:40:55;4.80;;;2.78;;
43146;SDS011;28752;48.266;7.402;2023-06-26T13:43:25;5.80;;;3.00;;
43146;SDS011;28752;48.266;7.402;2023-06-26T13:45:52;6.85;;;3.22;;
43146;SDS011;28752;48.266;7.402;2023-06-26T13:48:18;5.03;;;2.33;;
43146;SDS011;28752;48.266;7.402;2023-06-26T13:50:43;6.25;;;2.92;;
43146;SDS011;28752;48.266;7.402;2023-06-26T13:53:08;6.55;;;2.95;;
43146;SDS011;28752;48.266;7.402;2023-06-26T13:55:34;5.95;;;2.83;;
43146;SDS011;28752;48.266;7.402;2023-06-26T13:58:00;5.88;;;3.15;;
43146;SDS011;28752;48.266;7.402;2023-06-26T14:00:29;6.32;;;3.60;;
43146;SDS011;28752;48.266;7.402;2023-06-26T14:02:54;5.82;;;3.22;;
43146;SDS011;28752;48.266;7.402;2023-06-26T14:05:21;6.32;;;3.47;;
43146;SDS011;28752;48.266;7.402;2023-06-26T14:07:47;5.38;;;3.10;;
43146;SDS011;28752;48.266;7.402;2023-06-26T14:10:13;6.10;;;3.45;;
43146;SDS011;28752;48.266;7.402;2023-06-26T14:12:39;7.63;;;3.80;;
43146;SDS011;28752;48.266;7.402;2023-06-26T14:15:05;8.10;;;3.90;;
43146;SDS011;28752;48.266;7.402;2023-06-26T14:17:31;7.07;;;3.90;;
43146;SDS011;28752;48.266;7.402;2023-06-26T14:19:57;6.93;;;3.78;;
43146;SDS011;28752;48.266;7.402;2023-06-26T14:22:24;7.88;;;4.68;;
43146;SDS011;28752;48.266;7.402;2023-06-26T14:24:50;7.93;;;4.00;;
43146;SDS011;28752;48.266;7.402;2023-06-26T14:27:15;6.80;;;4.00;;
43146;SDS011;28752;48.266;7.402;2023-06-26T14:29:41;7.68;;;3.95;;
43146;SDS011;28752;48.266;7.402;2023-06-26T14:32:06;8.05;;;4.38;;
43146;SDS011;28752;48.266;7.402;2023-06-26T14:34:32;7.47;;;4.60;;
43146;SDS011;28752;48.266;7.402;2023-06-26T14:36:57;9.60;;;4.88;;
43146;SDS011;28752;48.266;7.402;2023-06-26T14:39:23;8.60;;;4.45;;
43146;SDS011;28752;48.266;7.402;2023-06-26T14:41:48;7.50;;;4.82;;
43146;SDS011;28752;48.266;7.402;2023-06-26T14:44:16;9.43;;;5.78;;
43146;SDS011;28752;48.266;7.402;2023-06-26T14:46:42;11.43;;;5.95;;
43146;SDS011;28752;48.266;7.402;2023-06-26T14:49:08;8.13;;;5.32;;
43146;SDS011;28752;48.266;7.402;2023-06-26T14:51:33;8.95;;;5.30;;
43146;SDS011;28752;48.266;7.402;2023-06-26T14:53:59;11.15;;;6.57;;
43146;SDS011;28752;48.266;7.402;2023-06-26T14:56:25;10.27;;;6.85;;
43146;SDS011;28752;48.266;7.402;2023-06-26T14:58:50;10.55;;;6.22;;
43146;SDS011;28752;48.266;7.402;2023-06-26T15:01:19;8.20;;;5.05;;
43146;SDS011;28752;48.266;7.402;2023-06-26T15:03:45;8.45;;;5.03;;
43146;SDS011;28752;48.266;7.402;2023-06-26T15:06:11;7.82;;;4.80;;
43146;SDS011;28752;48.266;7.402;2023-06-26T15:08:37;8.45;;;4.55;;
43146;SDS011;28752;48.266;7.402;2023-06-26T15:11:02;8.07;;;4.40;;